Time;durP1;ratioP1;P1;durP2;ratioP2;P2;SDS_P1;SDS_P2;PMS_P1;PMS_P2;Temp;Humidity;BMP_temperature;BMP_pressure;BME280_temperature;BME280_humidity;BME280_pressure;Samples;Min_cycle;Max_cycle;Signal;HPM_P1;HPM_P2
2021/08/20 00:02:15;;;;;;;0.40;0.20;;;;;;;18.00;100.00;100207.47;5039020;28;21000;-78
2021/08/20 00:04:42;;;;;;;0.47;0.30;;;;;;;17.96;100.00;100209.47;5027642;28;20867;-77
2021/08/20 00:07:09;;;;;;;0.40;0.20;;;;;;;17.95;100.00;100207.72;5045918;28;20952;-78
2021/08/20 00:09:36;;;;;;;0.40;0.30;;;;;;;17.95;100.00;100215.78;5022127;28;20500;-78
2021/08/20 00:12:05;;;;;;;0.40;0.20;;;;;;;17.86;100.00;100208.28;5055570;28;20497;-78
2021/08/20 00:14:32;;;;;;;1.00;1.00;;;;;;;17.86;100.00;100207.44;5056411;28;20443;-78
2021/08/20 00:16:58;;;;;;;0.40;0.30;;;;;;;17.91;100.00;100211.56;5038181;28;20504;-78
2021/08/20 00:19:25;;;;;;;0.40;0.20;;;;;;;17.81;100.00;100209.50;5056664;28;20446;-78
2021/08/20 00:21:52;;;;;;;0.40;0.20;;;;;;;17.75;100.00;100206.25;5055761;28;20500;-78
2021/08/20 00:24:19;;;;;;;0.50;0.30;;;;;;;17.85;100.00;100205.69;5056277;28;20451;-78
2021/08/20 00:26:46;;;;;;;0.40;0.30;;;;;;;17.83;100.00;100202.25;5030402;28;20465;-79
2021/08/20 00:29:13;;;;;;;0.40;0.20;;;;;;;17.76;100.00;100207.09;5021499;28;20459;-79
2021/08/20 00:31:40;;;;;;;0.40;0.30;;;;;;;17.68;100.00;100204.88;5033776;28;20498;-78
2021/08/20 00:34:07;;;;;;;0.53;0.50;;;;;;;17.55;100.00;100211.91;5038338;28;20876;-79
2021/08/20 00:36:34;;;;;;;0.40;0.30;;;;;;;17.59;100.00;100202.69;5030543;28;20973;-78
2021/08/20 00:39:01;;;;;;;0.40;0.30;;;;;;;17.44;100.00;100208.97;5045165;28;20493;-78
2021/08/20 00:41:27;;;;;;;0.40;0.20;;;;;;;17.44;100.00;100203.59;5037491;28;20466;-78
2021/08/20 00:43:54;;;;;;;0.40;0.20;;;;;;;17.30;100.00;100203.53;5038139;28;20481;-78
2021/08/20 00:46:21;;;;;;;0.40;0.20;;;;;;;17.08;100.00;100209.25;5055465;28;20924;-78
2021/08/20 00:48:48;;;;;;;0.40;0.30;;;;;;;17.03;100.00;100208.66;5055384;28;20455;-78
2021/08/20 00:51:27;;;;;;;0.40;0.27;;;;;;;17.00;100.00;100209.72;5037707;28;20907;-78
2021/08/20 00:53:55;;;;;;;0.40;0.20;;;;;;;17.00;100.00;100204.34;5055594;28;20492;-78
2021/08/20 00:56:23;;;;;;;0.40;0.20;;;;;;;16.90;100.00;100205.78;5055495;28;20450;-78
2021/08/20 00:58:50;;;;;;;0.40;0.30;;;;;;;16.85;100.00;100210.53;5037496;28;20998;-78
2021/08/20 01:01:20;;;;;;;0.40;0.20;;;;;;;16.73;100.00;100200.50;5041593;28;20470;-78
2021/08/20 01:03:48;;;;;;;0.40;0.30;;;;;;;16.80;100.00;100215.31;5038526;28;20528;-78
2021/08/20 01:06:15;;;;;;;0.40;0.30;;;;;;;16.70;100.00;100203.34;5050805;28;20964;-78
2021/08/20 01:08:42;;;;;;;0.40;0.20;;;;;;;16.54;100.00;100208.66;5049883;28;20443;-78
2021/08/20 01:11:11;;;;;;;0.90;0.90;;;;;;;16.57;100.00;100206.66;5054588;28;20521;-78
2021/08/20 01:13:41;;;;;;;0.40;0.30;;;;;;;16.62;100.00;100216.31;5037322;28;20462;-79
2021/08/20 01:16:09;;;;;;;0.40;0.23;;;;;;;16.56;100.00;100218.34;5055071;28;20447;-78
2021/08/20 01:18:41;;;;;;;0.47;0.37;;;;;;;16.49;100.00;100218.78;5054790;28;20862;-78
2021/08/20 01:21:11;;;;;;;0.40;0.20;;;;;;;16.55;100.00;100218.44;5036987;28;20870;-78
2021/08/20 01:23:38;;;;;;;0.40;0.20;;;;;;;16.55;100.00;100210.38;5041403;28;20502;-78
2021/08/20 01:26:05;;;;;;;0.40;0.20;;;;;;;16.48;100.00;100222.41;5037187;28;20513;-77
2021/08/20 01:28:33;;;;;;;0.40;0.20;;;;;;;16.34;100.00;100212.44;5036885;28;20482;-78
2021/08/20 01:31:06;;;;;;;0.40;0.20;;;;;;;16.38;100.00;100213.97;5055433;28;20518;-78
2021/08/20 01:33:34;;;;;;;0.50;0.50;;;;;;;16.39;100.00;100215.72;5038926;28;20534;-78
2021/08/20 01:36:03;;;;;;;0.40;0.20;;;;;;;16.56;100.00;100214.78;5043137;28;20443;-78
2021/08/20 01:38:31;;;;;;;0.50;0.50;;;;;;;16.77;100.00;100210.13;5030294;28;21014;-78
2021/08/20 01:40:58;;;;;;;0.40;0.20;;;;;;;16.70;100.00;100206.03;5017049;28;21103;-77
2021/08/20 01:43:25;;;;;;;0.40;0.30;;;;;;;16.76;100.00;100203.88;5048036;28;20794;-78
2021/08/20 01:45:52;;;;;;;0.40;0.20;;;;;;;16.84;100.00;100198.94;5034405;28;20509;-78
2021/08/20 01:48:19;;;;;;;0.40;0.20;;;;;;;16.83;100.00;100202.56;5039726;28;20880;-79
2021/08/20 01:50:46;;;;;;;0.40;0.20;;;;;;;16.79;100.00;100200.16;5025087;28;20459;-77
2021/08/20 01:53:13;;;;;;;0.50;0.47;;;;;;;16.86;100.00;100207.78;5039837;28;20486;-78
2021/08/20 01:55:44;;;;;;;0.50;0.40;;;;;;;17.03;100.00;100211.34;5054139;28;20447;-79
2021/08/20 01:58:12;;;;;;;1.13;1.13;;;;;;;16.92;100.00;100205.72;5047897;28;20498;-78
2021/08/20 02:00:39;;;;;;;0.40;0.20;;;;;;;16.94;100.00;100209.16;5016853;28;20428;-78
2021/08/20 02:03:07;;;;;;;0.50;0.43;;;;;;;16.87;100.00;100208.66;5036766;28;20512;-77
2021/08/20 02:05:35;;;;;;;0.40;0.20;;;;;;;16.84;100.00;100212.34;5036434;28;20489;-78
2021/08/20 02:08:02;;;;;;;0.67;0.67;;;;;;;16.93;100.00;100204.75;5036429;28;20482;-78
2021/08/20 02:10:29;;;;;;;0.40;0.20;;;;;;;16.98;100.00;100205.34;5036352;28;20451;-78
2021/08/20 02:12:56;;;;;;;0.40;0.20;;;;;;;17.00;100.00;100212.41;5035879;28;21053;-78
2021/08/20 02:15:23;;;;;;;0.40;0.20;;;;;;;16.90;100.00;100196.88;5053886;28;20447;-78
2021/08/20 02:17:50;;;;;;;0.40;0.20;;;;;;;17.00;100.00;100208.84;5036535;28;20520;-78
2021/08/20 02:20:17;;;;;;;0.40;0.20;;;;;;;17.03;100.00;100211.34;5054016;28;20479;-78
2021/08/20 02:22:43;;;;;;;0.40;0.20;;;;;;;17.06;100.00;100208.47;5036157;28;20462;-78
2021/08/20 02:25:11;;;;;;;0.40;0.20;;;;;;;17.06;100.00;100212.03;5053407;28;20447;-78
2021/08/20 02:27:37;;;;;;;0.40;0.20;;;;;;;17.05;100.00;100214.81;5045273;28;20495;-77
2021/08/20 02:30:05;;;;;;;0.40;0.30;;;;;;;17.00;100.00;100206.16;5031341;28;20494;-78
2021/08/20 02:32:32;;;;;;;0.40;0.20;;;;;;;17.05;100.00;100206.75;5053100;28;20544;-77
2021/08/20 02:35:08;;;;;;;0.40;0.20;;;;;;;17.15;100.00;100200.78;5036933;28;20450;-78
2021/08/20 02:37:35;;;;;;;0.43;0.40;;;;;;;17.18;100.00;100202.41;5049194;28;20866;-77
2021/08/20 02:40:02;;;;;;;0.40;0.27;;;;;;;17.08;100.00;100210.13;5036044;28;20461;-78
2021/08/20 02:42:29;;;;;;;0.40;0.20;;;;;;;17.13;100.00;100210.75;5053271;28;21007;-78
2021/08/20 02:44:57;;;;;;;0.40;0.20;;;;;;;17.06;100.00;100208.47;5040160;28;20447;-78
2021/08/20 02:47:23;;;;;;;0.40;0.20;;;;;;;17.10;100.00;100207.34;5053192;28;20478;-78
2021/08/20 02:49:50;;;;;;;1.37;1.37;;;;;;;17.18;100.00;100208.66;5053170;28;20478;-78
2021/08/20 02:52:17;;;;;;;0.40;0.20;;;;;;;17.28;100.00;100224.25;5053237;28;20525;-78
2021/08/20 02:54:44;;;;;;;0.40;0.30;;;;;;;17.24;100.00;100214.63;5035788;28;20455;-77
2021/08/20 02:57:11;;;;;;;1.47;1.37;;;;;;;17.21;100.00;100218.34;5052588;28;20455;-78
2021/08/20 02:59:38;;;;;;;0.40;0.30;;;;;;;16.95;100.00;100208.22;5053140;28;21025;-77
2021/08/20 03:02:05;;;;;;;0.40;0.20;;;;;;;17.05;100.00;100217.50;5042534;28;20500;-78
2021/08/20 03:04:32;;;;;;;0.40;0.30;;;;;;;16.82;100.00;100206.22;5039088;28;20458;-77
2021/08/20 03:06:59;;;;;;;0.40;0.30;;;;;;;16.65;100.00;100216.13;5052779;28;20509;-78
2021/08/20 03:09:26;;;;;;;0.40;0.20;;;;;;;16.58;100.00;100205.75;5047388;28;20436;-78
2021/08/20 03:11:53;;;;;;;1.03;1.03;;;;;;;16.54;100.00;100214.03;5045444;28;20491;-78
2021/08/20 03:14:21;;;;;;;0.40;0.20;;;;;;;16.58;100.00;100213.78;5035005;28;20485;-77
2021/08/20 03:16:48;;;;;;;0.40;0.20;;;;;;;16.56;100.00;100215.66;5052550;28;20523;-78
2021/08/20 03:19:16;;;;;;;0.40;0.20;;;;;;;16.47;100.00;100218.88;5035023;28;20486;-78
2021/08/20 03:21:43;;;;;;;0.50;0.40;;;;;;;16.43;100.00;100216.41;5052221;28;20993;-78
2021/08/20 03:24:10;;;;;;;0.40;0.30;;;;;;;16.36;100.00;100225.75;5015056;28;20517;-78
2021/08/20 03:26:37;;;;;;;0.40;0.30;;;;;;;16.16;100.00;100203.53;5028714;28;20450;-77
2021/08/20 03:29:04;;;;;;;0.40;0.20;;;;;;;16.19;100.00;100216.78;5031099;28;20498;-77
2021/08/20 03:31:31;;;;;;;0.40;0.30;;;;;;;16.14;100.00;100221.50;5029562;28;21022;-77
2021/08/20 03:33:58;;;;;;;0.40;0.20;;;;;;;16.13;100.00;100217.09;5052805;28;20450;-77
2021/08/20 03:36:26;;;;;;;0.63;0.63;;;;;;;16.00;100.00;100216.00;5030752;28;20458;-77
2021/08/20 03:38:53;;;;;;;0.40;0.20;;;;;;;15.87;100.00;100204.19;5041422;28;20516;-76
2021/08/20 03:41:21;;;;;;;0.40;0.20;;;;;;;15.99;100.00;100219.63;5035047;28;20971;-78
2021/08/20 03:43:49;;;;;;;2.03;1.63;;;;;;;15.81;100.00;100208.06;5034566;28;20497;-77
2021/08/20 03:46:16;;;;;;;4.30;1.53;;;;;;;15.68;100.00;100206.94;5053830;28;20513;-77
2021/08/20 03:48:44;;;;;;;0.40;0.40;;;;;;;15.64;100.00;100213.41;5034200;28;20489;-77
2021/08/20 03:51:12;;;;;;;1.67;1.57;;;;;;;15.60;100.00;100217.19;5031667;28;20526;-77
2021/08/20 03:53:39;;;;;;;0.40;0.20;;;;;;;15.51;100.00;100213.13;5043637;28;20512;-77
2021/08/20 03:56:07;;;;;;;1.43;1.43;;;;;;;15.48;100.00;100212.41;5031372;28;20448;-77
2021/08/20 03:58:34;;;;;;;0.40;0.20;;;;;;;15.45;100.00;100215.22;5043028;28;20509;-78
2021/08/20 04:01:06;;;;;;;0.50;0.40;;;;;;;15.39;100.00;100216.41;5034351;28;20978;-77
2021/08/20 04:03:33;;;;;;;0.40;0.20;;;;;;;15.30;100.00;100214.19;5034763;28;20467;-77
2021/08/20 04:06:00;;;;;;;0.40;0.20;;;;;;;15.34;100.00;100232.69;5053119;28;20501;-76
2021/08/20 04:08:27;;;;;;;0.40;0.30;;;;;;;15.30;100.00;100217.72;5035835;28;20883;-77
2021/08/20 04:10:54;;;;;;;0.40;0.20;;;;;;;15.24;100.00;100230.56;5035632;28;20454;-77
2021/08/20 04:13:21;;;;;;;0.53;0.53;;;;;;;15.06;100.00;100206.41;5036202;28;20901;-77
2021/08/20 04:15:48;;;;;;;0.40;0.20;;;;;;;15.12;100.00;100232.03;5034373;28;20478;-77
2021/08/20 04:18:15;;;;;;;0.40;0.20;;;;;;;15.09;100.00;100237.53;5034806;28;20482;-77
2021/08/20 04:20:42;;;;;;;0.40;0.27;;;;;;;15.02;100.00;100231.59;5034291;28;20455;-76
2021/08/20 04:23:10;;;;;;;0.40;0.30;;;;;;;14.92;100.00;100235.63;5034716;28;20537;-76
2021/08/20 04:25:37;;;;;;;0.80;0.80;;;;;;;14.89;100.00;100238.47;5052498;28;21022;-77
2021/08/20 04:28:04;;;;;;;0.50;0.30;;;;;;;14.89;100.00;100240.28;5034523;28;20450;-77
2021/08/20 04:30:32;;;;;;;0.40;0.20;;;;;;;14.93;100.00;100244.53;5051465;28;20485;-77
2021/08/20 04:32:59;;;;;;;0.40;0.20;;;;;;;14.96;100.00;100247.09;5051600;28;20490;-77
2021/08/20 04:35:27;;;;;;;0.87;0.50;;;;;;;14.90;100.00;100260.75;5038418;28;20985;-77
2021/08/20 04:37:54;;;;;;;0.40;0.20;;;;;;;14.89;100.00;100270.59;5029096;28;20482;-78
2021/08/20 04:40:21;;;;;;;0.50;0.43;;;;;;;14.87;100.00;100256.41;5033758;28;20486;-77
2021/08/20 04:42:48;;;;;;;1.23;1.23;;;;;;;14.87;100.00;100256.41;5051701;28;20522;-77
2021/08/20 04:45:16;;;;;;;0.40;0.20;;;;;;;14.92;100.00;100273.09;5051591;28;20465;-77
2021/08/20 04:47:44;;;;;;;0.40;0.20;;;;;;;14.87;100.00;100274.28;5033724;28;20474;-77
2021/08/20 04:50:13;;;;;;;0.40;0.20;;;;;;;14.88;100.00;100274.19;5033907;28;20498;-77
2021/08/20 04:52:40;;;;;;;0.40;0.20;;;;;;;14.90;100.00;100277.66;5051291;28;20919;-76
2021/08/20 04:55:08;;;;;;;0.50;0.50;;;;;;;15.03;100.00;100281.50;5043313;28;20863;-77
2021/08/20 04:57:35;;;;;;;1.47;1.17;;;;;;;14.99;100.00;100273.72;5030021;28;20497;-77
2021/08/20 05:00:05;;;;;;;0.40;0.30;;;;;;;15.03;100.00;100291.34;5037566;28;20508;-77
2021/08/20 05:02:35;;;;;;;0.40;0.30;;;;;;;15.22;100.00;100281.53;5055497;28;20506;-78
2021/08/20 05:05:07;;;;;;;2.00;2.00;;;;;;;15.14;100.00;100286.38;5056493;28;20445;-78
2021/08/20 05:07:35;;;;;;;1.17;0.83;;;;;;;15.25;100.00;100284.06;5055418;28;20465;-78
2021/08/20 05:10:09;;;;;;;0.40;0.20;;;;;;;15.34;100.00;100285.41;5056031;28;20451;-77
2021/08/20 05:12:41;;;;;;;1.17;1.17;;;;;;;15.61;100.00;100280.53;5038397;28;20547;-78
2021/08/20 05:15:08;;;;;;;3.57;1.67;;;;;;;16.08;100.00;100279.97;5037828;28;20500;-78
2021/08/20 05:17:36;;;;;;;0.40;0.20;;;;;;;16.54;100.00;100281.09;5055335;28;20450;-78
2021/08/20 05:20:06;;;;;;;1.03;1.03;;;;;;;17.01;100.00;100283.94;5037567;28;20497;-78
2021/08/20 05:22:48;;;;;;;0.50;0.43;;;;;;;17.90;100.00;100290.50;5037675;28;21011;-78
2021/08/20 05:25:16;;;;;;;0.93;0.77;;;;;;;18.06;100.00;100294.03;5037598;28;20951;-78
2021/08/20 05:27:44;;;;;;;10.90;1.23;;;;;;;18.43;100.00;100307.97;5027982;28;20779;-78
2021/08/20 05:30:11;;;;;;;0.83;0.83;;;;;;;18.76;100.00;100299.66;5024362;28;20454;-78
2021/08/20 05:32:39;;;;;;;0.40;0.30;;;;;;;18.71;100.00;100312.56;5037133;28;20960;-78
2021/08/20 05:35:08;;;;;;;0.40;0.20;;;;;;;18.81;100.00;100315.56;5037517;28;20482;-78
2021/08/20 05:37:35;;;;;;;1.13;1.03;;;;;;;19.08;100.00;100308.44;5032385;28;20454;-78
2021/08/20 05:40:06;;;;;;;0.50;0.30;;;;;;;19.38;100.00;100305.59;5033440;28;20440;-79
2021/08/20 05:42:33;;;;;;;0.50;0.50;;;;;;;19.91;98.62;100300.38;5018334;28;20993;-78
2021/08/20 05:45:00;;;;;;;0.87;0.87;;;;;;;19.79;97.05;100308.31;5036252;28;20512;-78
2021/08/20 05:47:27;;;;;;;0.40;0.20;;;;;;;19.94;96.79;100306.41;5039376;28;20450;-78
2021/08/20 05:49:57;;;;;;;0.40;0.20;;;;;;;19.86;96.23;100311.44;5049240;28;20455;-78
2021/08/20 05:52:24;;;;;;;4.63;3.73;;;;;;;19.88;96.02;100303.28;5047531;28;20589;-78
2021/08/20 05:54:51;;;;;;;0.40;0.30;;;;;;;19.50;98.25;100314.72;5054878;28;20451;-78
2021/08/20 05:57:18;;;;;;;0.50;0.30;;;;;;;19.27;99.35;100312.66;5036174;28;20486;-77
2021/08/20 05:59:45;;;;;;;0.40;0.20;;;;;;;19.11;100.00;100316.31;5036736;28;20443;-78
2021/08/20 06:02:12;;;;;;;0.40;0.20;;;;;;;19.12;100.00;100314.50;5054218;28;21008;-78
2021/08/20 06:04:39;;;;;;;0.40;0.20;;;;;;;19.14;100.00;100308.03;5054237;28;20445;-78
2021/08/20 06:07:07;;;;;;;0.50;0.40;;;;;;;19.44;99.13;100313.28;5037171;28;20455;-78
2021/08/20 06:09:34;;;;;;;0.50;0.40;;;;;;;19.31;97.76;100308.78;5044140;28;20459;-79
2021/08/20 06:12:01;;;;;;;0.50;0.43;;;;;;;19.54;97.79;100321.66;5038288;28;20911;-79
2021/08/20 06:14:28;;;;;;;0.40;0.30;;;;;;;20.00;95.05;100334.81;5039087;28;20483;-79
2021/08/20 06:16:55;;;;;;;0.50;0.40;;;;;;;20.01;95.46;100323.94;5057108;28;20462;-79
2021/08/20 06:19:23;;;;;;;0.40;0.20;;;;;;;19.80;95.82;100328.94;5027705;28;20501;-78
2021/08/20 06:21:51;;;;;;;0.40;0.20;;;;;;;19.63;96.78;100321.09;5040501;28;20532;-78
2021/08/20 06:24:18;;;;;;;0.43;0.30;;;;;;;19.41;98.02;100326.97;5055945;28;20455;-78
2021/08/20 06:26:46;;;;;;;11.83;0.77;;;;;;;19.90;95.42;100323.78;5048297;28;20455;-79
2021/08/20 06:29:16;;;;;;;0.40;0.20;;;;;;;20.01;96.11;100315.84;5037669;28;20838;-78
2021/08/20 06:31:48;;;;;;;0.40;0.30;;;;;;;19.70;96.09;100321.53;5037332;28;20511;-79
2021/08/20 06:34:15;;;;;;;0.83;0.83;;;;;;;19.68;95.44;100316.25;5021480;28;20440;-79
2021/08/20 06:36:43;;;;;;;0.40;0.20;;;;;;;19.64;94.09;100311.16;5034635;28;20488;-78
2021/08/20 06:39:12;;;;;;;0.40;0.20;;;;;;;20.02;93.99;100314.88;5057511;28;20501;-79
2021/08/20 06:41:39;;;;;;;0.40;0.20;;;;;;;19.66;93.29;100330.81;5026920;28;20895;-79
2021/08/20 06:44:06;;;;;;;0.50;0.40;;;;;;;19.52;92.89;100328.97;5028702;28;20514;-79
2021/08/20 06:46:33;;;;;;;0.40;0.20;;;;;;;19.59;93.41;100316.84;5037936;28;20472;-79
2021/08/20 06:49:00;;;;;;;0.40;0.20;;;;;;;19.60;93.63;100326.69;5039641;28;20466;-79
2021/08/20 06:51:27;;;;;;;0.80;0.80;;;;;;;19.87;91.64;100328.50;5051017;28;20860;-78
2021/08/20 06:53:54;;;;;;;0.40;0.20;;;;;;;19.75;93.04;100324.81;5028409;28;20920;-79
2021/08/20 06:56:21;;;;;;;0.50;0.50;;;;;;;19.69;93.18;100320.66;5036598;28;20459;-79
2021/08/20 06:58:48;;;;;;;0.40;0.20;;;;;;;19.96;91.64;100312.56;5054531;28;20471;-79
2021/08/20 07:01:16;;;;;;;0.50;0.50;;;;;;;19.78;90.91;100319.22;5036265;28;20464;-79
2021/08/20 07:03:43;;;;;;;0.40;0.20;;;;;;;20.03;90.27;100324.69;5036298;28;20490;-79
2021/08/20 07:06:21;;;;;;;1.33;1.23;;;;;;;20.15;89.60;100331.13;5048466;28;20513;-78
2021/08/20 07:08:49;;;;;;;0.50;0.37;;;;;;;19.74;91.00;100332.03;5036800;28;20439;-78
2021/08/20 07:11:20;;;;;;;4.40;1.33;;;;;;;20.03;90.40;100332.81;5054265;28;20478;-78
2021/08/20 07:13:48;;;;;;;0.40;0.20;;;;;;;20.20;89.73;100328.09;5023192;28;20452;-78
2021/08/20 07:16:15;;;;;;;0.40;0.20;;;;;;;20.36;90.37;100332.34;5054220;28;20466;-78
2021/08/20 07:18:42;;;;;;;0.40;0.20;;;;;;;20.49;87.73;100332.38;5055425;28;20426;-79
2021/08/20 07:21:09;;;;;;;0.40;0.30;;;;;;;20.20;89.42;100328.09;5038116;28;20497;-79
2021/08/20 07:23:37;;;;;;;0.40;0.20;;;;;;;20.70;87.88;100330.06;5052599;28;20946;-79
2021/08/20 07:26:05;;;;;;;0.40;0.20;;;;;;;20.31;88.44;100334.50;5026984;28;20535;-79
2021/08/20 07:28:34;;;;;;;0.40;0.20;;;;;;;20.79;86.91;100334.78;5037294;28;20968;-79
2021/08/20 07:31:01;;;;;;;0.40;0.20;;;;;;;20.58;87.14;100337.16;5028419;28;20445;-78
2021/08/20 07:33:28;;;;;;;0.40;0.20;;;;;;;20.72;87.02;100321.84;5054960;28;20417;-79
2021/08/20 07:35:56;;;;;;;0.40;0.30;;;;;;;20.66;86.54;100325.81;5034989;28;20832;-79
2021/08/20 07:38:23;;;;;;;1.10;1.10;;;;;;;21.18;85.63;100324.81;5021467;28;20486;-79
2021/08/20 07:40:50;;;;;;;0.40;0.30;;;;;;;20.68;86.21;100329.25;5037040;28;20454;-79
2021/08/20 07:43:17;;;;;;;0.40;0.20;;;;;;;21.04;84.79;100333.94;5036076;28;20478;-79
2021/08/20 07:45:44;;;;;;;0.40;0.20;;;;;;;21.48;82.08;100335.28;5053950;28;20516;-79
2021/08/20 07:48:12;;;;;;;0.40;0.20;;;;;;;21.22;83.31;100337.13;5031062;28;20471;-78
2021/08/20 07:50:40;;;;;;;0.40;0.20;;;;;;;21.39;82.50;100336.84;5017239;28;20434;-78
2021/08/20 07:53:08;;;;;;;0.40;0.20;;;;;;;21.38;83.51;100334.22;5053561;28;20940;-79
2021/08/20 07:55:35;;;;;;;0.40;0.20;;;;;;;21.33;80.86;100337.25;5035395;28;20508;-78
2021/08/20 07:58:02;;;;;;;1.37;0.83;;;;;;;21.33;79.87;100331.84;5053128;28;20450;-79
2021/08/20 08:00:31;;;;;;;0.40;0.20;;;;;;;21.55;81.05;100329.31;5035551;28;20794;-79
2021/08/20 08:03:00;;;;;;;0.40;0.30;;;;;;;21.83;79.79;100335.41;5034985;28;20529;-79
2021/08/20 08:05:28;;;;;;;0.40;0.20;;;;;;;22.04;78.32;100341.03;5035878;28;20421;-78
2021/08/20 08:07:56;;;;;;;0.40;0.20;;;;;;;21.94;79.47;100343.59;5035363;28;20541;-79
2021/08/20 08:10:24;;;;;;;0.40;0.20;;;;;;;21.25;81.35;100336.97;5035042;28;20462;-78
2021/08/20 08:12:52;;;;;;;0.40;0.20;;;;;;;21.73;81.01;100337.06;5043242;28;20471;-78
2021/08/20 08:15:21;;;;;;;0.50;0.37;;;;;;;22.03;79.91;100345.59;5052342;28;20474;-78
2021/08/20 08:17:48;;;;;;;0.40;0.20;;;;;;;22.52;78.19;100351.84;5052228;28;20452;-78
2021/08/20 08:20:16;;;;;;;0.80;0.80;;;;;;;21.68;76.99;100347.38;5053092;28;20471;-78
2021/08/20 08:22:44;;;;;;;0.40;0.20;;;;;;;21.85;79.42;100355.09;5034372;28;20967;-79
2021/08/20 08:25:12;;;;;;;0.40;0.20;;;;;;;22.13;78.39;100360.19;5052473;28;20511;-78
2021/08/20 08:27:57;;;;;;;0.40;0.20;;;;;;;22.00;77.95;100355.78;5027397;28;20520;-78
2021/08/20 08:30:26;;;;;;;0.40;0.30;;;;;;;22.06;78.87;100358.06;5052191;28;20481;-79
2021/08/20 08:32:55;;;;;;;0.50;0.30;;;;;;;22.31;77.90;100359.78;5055628;28;20494;-78
2021/08/20 08:35:23;;;;;;;0.40;0.30;;;;;;;22.77;78.00;100365.22;5038903;28;20451;-78
2021/08/20 08:37:50;;;;;;;0.40;0.30;;;;;;;22.02;79.05;100370.06;5039509;28;20875;-79
2021/08/20 08:40:17;;;;;;;0.40;0.27;;;;;;;22.46;77.31;100364.88;5053234;28;20434;-79
2021/08/20 08:42:44;;;;;;;0.50;0.50;;;;;;;22.31;77.70;100370.59;5054977;28;20471;-79
2021/08/20 08:45:14;;;;;;;0.77;0.77;;;;;;;21.89;79.38;100375.53;5030387;28;20467;-79
2021/08/20 08:47:41;;;;;;;0.40;0.30;;;;;;;22.06;79.40;100377.00;5043407;28;20479;-79
2021/08/20 08:50:09;;;;;;;0.40;0.20;;;;;;;21.97;77.06;100373.13;5043641;28;20482;-79
2021/08/20 08:52:37;;;;;;;0.50;0.50;;;;;;;21.96;78.06;100371.41;5044281;28;20465;-79
2021/08/20 08:55:06;;;;;;;0.40;0.20;;;;;;;22.29;78.03;100381.56;5045603;28;20458;-79
2021/08/20 08:57:33;;;;;;;0.40;0.30;;;;;;;21.99;77.82;100373.88;5050531;28;20463;-79
2021/08/20 09:00:01;;;;;;;0.40;0.30;;;;;;;22.46;76.48;100380.25;5045833;28;20429;-79
2021/08/20 09:02:31;;;;;;;0.40;0.20;;;;;;;22.12;78.40;100379.28;5045195;28;20477;-79
2021/08/20 09:05:11;;;;;;;0.40;0.30;;;;;;;21.87;81.10;100370.22;5064106;28;20486;-79
2021/08/20 09:07:39;;;;;;;0.40;0.20;;;;;;;21.84;80.13;100362.34;5063394;28;20457;-78
2021/08/20 09:10:23;;;;;;;1.23;0.67;;;;;;;21.80;79.16;100363.56;5063555;28;20438;-79
2021/08/20 09:12:50;;;;;;;0.50;0.30;;;;;;;21.89;79.60;100368.28;5044778;28;20467;-79
2021/08/20 09:15:20;;;;;;;0.40;0.20;;;;;;;22.09;80.20;100368.69;5045788;28;20447;-79
2021/08/20 09:17:49;;;;;;;0.40;0.30;;;;;;;22.58;80.28;100364.91;5045684;28;20469;-79
2021/08/20 09:20:22;;;;;;;0.43;0.30;;;;;;;22.64;77.56;100357.19;5047179;28;20500;-80
2021/08/20 09:22:51;;;;;;;0.40;0.20;;;;;;;22.72;76.74;100367.41;5046756;28;20479;-78
2021/08/20 09:25:29;;;;;;;0.40;0.20;;;;;;;22.66;75.52;100366.06;5046173;28;20964;-79
2021/08/20 09:28:19;;;;;;;0.77;0.77;;;;;;;23.14;73.53;100371.34;5056541;28;20446;-79
2021/08/20 09:31:12;;;;;;;0.83;0.83;;;;;;;23.56;72.01;100367.03;5036273;28;20476;-79
2021/08/20 09:33:42;;;;;;;1.03;1.03;;;;;;;23.43;71.55;100370.84;5029867;28;20463;-79
2021/08/20 09:36:15;;;;;;;0.40;0.20;;;;;;;22.68;74.43;100364.09;5043809;28;20501;-79
2021/08/20 09:38:49;;;;;;;0.40;0.30;;;;;;;22.53;75.18;100362.56;5034517;28;20453;-79
2021/08/20 09:41:24;;;;;;;0.60;0.50;;;;;;;22.81;75.81;100369.41;5046865;28;20513;-79
2021/08/20 09:44:24;;;;;;;0.40;0.20;;;;;;;22.98;75.23;100369.00;5047156;28;20478;-79
2021/08/20 09:46:55;;;;;;;0.40;0.30;;;;;;;22.71;76.83;100363.84;5051620;28;20477;-79
2021/08/20 09:49:25;;;;;;;0.40;0.20;;;;;;;22.88;75.32;100365.25;5045578;28;20454;-80
2021/08/20 09:51:52;;;;;;;0.40;0.20;;;;;;;22.64;76.88;100361.75;5035450;28;20520;-79
2021/08/20 09:54:26;;;;;;;0.40;0.20;;;;;;;22.51;78.13;100367.25;5046947;28;20514;-79
2021/08/20 09:56:59;;;;;;;0.40;0.20;;;;;;;22.44;75.88;100368.69;5065622;28;20529;-79
2021/08/20 09:59:29;;;;;;;0.50;0.40;;;;;;;22.88;76.04;100367.13;5064729;28;20416;-79
2021/08/20 10:02:00;;;;;;;0.40;0.20;;;;;;;23.29;74.95;100364.69;5065158;28;20536;-79
2021/08/20 10:04:30;;;;;;;0.40;0.30;;;;;;;23.03;73.83;100355.94;5047870;28;20513;-79
2021/08/20 10:06:58;;;;;;;0.50;0.30;;;;;;;22.93;74.98;100360.38;5047096;28;20426;-79
2021/08/20 10:09:29;;;;;;;0.67;0.40;;;;;;;23.27;74.90;100365.81;5046558;28;20429;-79
2021/08/20 10:11:58;;;;;;;0.40;0.30;;;;;;;23.37;73.22;100355.94;5046005;28;20493;-79
2021/08/20 10:14:26;;;;;;;1.17;0.83;;;;;;;23.83;72.60;100347.63;5045971;28;20436;-79
2021/08/20 10:16:53;;;;;;;0.50;0.40;;;;;;;23.53;74.10;100353.72;5063105;28;20469;-79
2021/08/20 10:19:20;;;;;;;0.50;0.40;;;;;;;23.90;73.52;100357.00;5047406;28;20434;-80
2021/08/20 10:21:47;;;;;;;0.40;0.30;;;;;;;24.01;71.84;100349.84;5046975;28;20445;-79
2021/08/20 10:24:15;;;;;;;0.40;0.20;;;;;;;23.53;71.64;100353.72;5038513;28;20462;-80
2021/08/20 10:26:54;;;;;;;0.40;0.20;;;;;;;23.59;72.05;100344.25;5040521;28;20451;-79
2021/08/20 10:29:24;;;;;;;5.00;1.50;;;;;;;23.63;72.40;100341.16;5062641;28;20406;-79
2021/08/20 10:31:51;;;;;;;0.50;0.40;;;;;;;23.73;72.54;100334.97;5045707;28;20500;-78
2021/08/20 10:34:45;;;;;;;0.40;0.20;;;;;;;24.31;72.89;100335.53;5046131;28;20448;-80
2021/08/20 10:37:24;;;;;;;0.40;0.23;;;;;;;24.37;70.43;100333.16;5028865;28;20438;-80
2021/08/20 10:39:53;;;;;;;0.40;0.30;;;;;;;24.96;70.26;100339.88;5062930;28;20461;-79
2021/08/20 10:42:23;;;;;;;0.40;0.30;;;;;;;24.37;68.35;100341.31;5043899;28;20503;-79
2021/08/20 10:45:08;;;;;;;0.40;0.30;;;;;;;25.00;69.11;100341.31;5045288;28;20486;-79
2021/08/20 10:47:38;;;;;;;0.40;0.20;;;;;;;24.53;68.47;100338.13;5062019;28;20447;-79
2021/08/20 10:50:06;;;;;;;0.47;0.30;;;;;;;24.20;68.66;100336.41;5043565;28;20441;-79
2021/08/20 10:52:35;;;;;;;0.40;0.30;;;;;;;24.29;69.99;100327.50;5044420;28;20442;-79
2021/08/20 10:55:03;;;;;;;0.50;0.50;;;;;;;24.66;68.60;100324.34;5061653;28;20429;-79
2021/08/20 10:57:38;;;;;;;0.50;0.40;;;;;;;24.93;67.63;100326.50;5045718;28;20455;-79
2021/08/20 11:00:07;;;;;;;0.40;0.30;;;;;;;25.31;68.36;100325.88;5062488;28;20459;-79
2021/08/20 11:02:41;;;;;;;0.50;0.40;;;;;;;25.13;66.74;100322.94;5043581;28;20453;-78
2021/08/20 11:05:09;;;;;;;0.40;0.20;;;;;;;24.95;67.49;100319.09;5055080;28;20516;-78
2021/08/20 11:07:36;;;;;;;0.40;0.30;;;;;;;25.61;67.11;100316.78;5055362;28;20943;-78
2021/08/20 11:10:09;;;;;;;2.30;0.73;;;;;;;25.71;65.66;100322.28;5038861;28;20442;-78
2021/08/20 11:12:47;;;;;;;0.50;0.40;;;;;;;25.68;67.22;100318.84;5054909;28;20438;-78
2021/08/20 11:15:17;;;;;;;0.40;0.30;;;;;;;25.83;66.45;100319.31;5037807;28;20921;-78
2021/08/20 11:18:02;;;;;;;0.40;0.30;;;;;;;25.77;65.08;100319.00;5018653;28;20472;-78
2021/08/20 11:20:52;;;;;;;0.47;0.30;;;;;;;25.01;66.55;100324.88;5035871;28;20817;-77
2021/08/20 11:23:19;;;;;;;0.40;0.30;;;;;;;25.38;67.18;100325.19;5024704;28;20403;-78
2021/08/20 11:25:47;;;;;;;0.50;0.30;;;;;;;25.31;67.83;100321.28;5026152;28;20447;-77
2021/08/20 11:28:34;;;;;;;0.40;0.20;;;;;;;25.68;65.36;100320.69;5056392;28;20451;-78
2021/08/20 11:31:03;;;;;;;0.40;0.30;;;;;;;25.27;68.03;100325.28;5039667;28;20469;-78